createdAt,value
2019-05-19T00:02:00.408Z,47.50
2019-05-19T00:04:29.199Z,47.70
2019-05-19T00:06:58.039Z,47.40
2019-05-19T00:09:26.878Z,47.80
2019-05-19T00:11:55.792Z,48.10
2019-05-19T00:14:24.711Z,48.50
2019-05-19T00:16:53.523Z,47.80
2019-05-19T00:19:26.794Z,48.70
2019-05-19T00:21:52.830Z,48.90
2019-05-19T00:24:21.670Z,48.80
2019-05-19T00:26:50.545Z,48.90
2019-05-19T00:29:19.408Z,49.70
2019-05-19T00:31:48.190Z,49.60
2019-05-19T00:34:17.054Z,49.50
2019-05-19T00:36:45.931Z,49.60
2019-05-19T00:39:14.821Z,49.60
2019-05-19T00:41:43.815Z,50.30
2019-05-19T00:44:14.235Z,49.80
2019-05-19T00:46:43.028Z,50.40
2019-05-19T00:49:11.876Z,51.00
2019-05-19T00:51:40.955Z,50.80
2019-05-19T00:54:09.855Z,51.30
2019-05-19T00:56:38.796Z,50.60
2019-05-19T00:59:08.828Z,50.80
2019-05-19T01:01:37.716Z,50.90
2019-05-19T01:04:06.556Z,51.00
2019-05-19T01:06:35.311Z,51.50
2019-05-19T01:09:05.382Z,51.40
2019-05-19T01:11:34.222Z,48.00
2019-05-19T01:14:15.347Z,48.40
2019-05-19T01:16:43.857Z,51.30
2019-05-19T01:19:12.631Z,52.00
2019-05-19T01:21:42.583Z,52.40
2019-05-19T01:24:11.456Z,52.30
2019-05-19T01:26:40.271Z,52.60
2019-05-19T01:29:09.048Z,52.60
2019-05-19T01:31:37.904Z,52.80
2019-05-19T01:34:06.690Z,53.00
2019-05-19T01:36:35.519Z,53.20
2019-05-19T01:39:05.902Z,53.50
2019-05-19T01:41:35.181Z,53.80
2019-05-19T01:44:03.942Z,53.80
2019-05-19T01:46:32.791Z,50.80
2019-05-19T01:49:01.878Z,54.00
2019-05-19T01:51:30.734Z,54.50
2019-05-19T01:53:59.566Z,54.40
2019-05-19T01:56:28.439Z,55.10
2019-05-19T01:58:57.199Z,54.70
2019-05-19T02:01:26.055Z,55.20
2019-05-19T02:03:54.927Z,54.70
2019-05-19T02:06:23.775Z,55.00
2019-05-19T02:08:52.582Z,55.30
2019-05-19T02:11:21.449Z,55.30
2019-05-19T02:13:50.260Z,56.30
2019-05-19T02:16:19.094Z,55.40
2019-05-19T02:18:47.862Z,55.60
2019-05-19T02:21:16.646Z,55.40
2019-05-19T02:23:45.510Z,55.40
2019-05-19T02:26:14.342Z,55.70
2019-05-19T02:28:43.190Z,55.50
2019-05-19T02:31:12.008Z,55.60
2019-05-19T02:33:40.871Z,55.30
2019-05-19T02:36:10.780Z,54.20
2019-05-19T02:38:39.731Z,56.20
2019-05-19T02:41:10.548Z,54.40
2019-05-19T02:43:39.524Z,55.90
2019-05-19T02:46:09.298Z,55.50
2019-05-19T02:48:40.702Z,56.10
2019-05-19T02:51:10.755Z,55.80
2019-05-19T02:53:39.885Z,56.30
2019-05-19T02:56:09.058Z,55.80
2019-05-19T02:58:39.014Z,56.10
2019-05-19T03:01:07.861Z,55.70
2019-05-19T03:03:36.708Z,56.30
2019-05-19T03:06:05.581Z,56.10
2019-05-19T03:08:34.428Z,55.90
2019-05-19T03:11:04.912Z,55.90
2019-05-19T03:13:35.221Z,55.30
2019-05-19T03:16:04.069Z,55.90
2019-05-19T03:18:32.924Z,55.50
2019-05-19T03:21:10.817Z,56.20
2019-05-19T03:23:32.230Z,55.80
2019-05-19T03:26:01.169Z,56.00
2019-05-19T03:28:30.026Z,56.20
2019-05-19T03:31:03.536Z,56.20
2019-05-19T03:33:33.903Z,56.50
2019-05-19T03:36:02.681Z,55.90
2019-05-19T03:38:31.523Z,56.40
2019-05-19T03:41:00.296Z,56.10
2019-05-19T03:43:29.165Z,56.90
2019-05-19T03:45:57.988Z,56.50
2019-05-19T03:48:26.862Z,56.10
2019-05-19T03:50:55.696Z,56.40
2019-05-19T03:53:24.568Z,56.30
2019-05-19T03:55:53.413Z,56.40
2019-05-19T03:58:22.197Z,56.20
2019-05-19T04:00:50.972Z,56.70
2019-05-19T04:03:19.764Z,56.50
2019-05-19T04:05:48.645Z,56.50
2019-05-19T04:08:17.396Z,56.60
2019-05-19T04:10:46.240Z,56.00
2019-05-19T04:13:15.147Z,56.50
2019-05-19T04:15:44.117Z,56.40
2019-05-19T04:18:13.004Z,56.30
2019-05-19T04:20:42.660Z,56.60
2019-05-19T04:23:11.435Z,56.50
2019-05-19T04:25:40.300Z,56.40
2019-05-19T04:28:09.121Z,56.80
2019-05-19T04:30:37.965Z,56.90
2019-05-19T04:33:09.139Z,56.20
2019-05-19T04:35:37.980Z,56.40
2019-05-19T04:38:08.428Z,55.40
2019-05-19T04:40:37.292Z,55.10
2019-05-19T04:43:06.163Z,56.30
2019-05-19T04:45:35.011Z,56.50
2019-05-19T04:48:03.845Z,56.40
2019-05-19T04:50:32.733Z,57.10
2019-05-19T04:53:01.496Z,56.90
2019-05-19T04:55:30.342Z,56.70
2019-05-19T04:57:59.116Z,57.40
2019-05-19T05:00:28.030Z,57.00
2019-05-19T05:02:56.848Z,54.10
2019-05-19T05:05:25.703Z,56.30
2019-05-19T05:07:55.157Z,55.90
2019-05-19T05:10:24.013Z,56.50
2019-05-19T05:12:52.933Z,55.80
2019-05-19T05:15:21.748Z,56.30
2019-05-19T05:17:50.636Z,56.40
2019-05-19T05:20:19.707Z,55.60
2019-05-19T05:22:48.658Z,56.20
2019-05-19T05:25:17.507Z,56.40
2019-05-19T05:27:46.347Z,55.50
2019-05-19T05:30:15.499Z,55.10
2019-05-19T05:32:44.387Z,55.60
2019-05-19T05:35:14.259Z,55.10
2019-05-19T05:37:43.096Z,54.70
2019-05-19T05:40:12.222Z,55.60
2019-05-19T05:42:41.108Z,55.00
2019-05-19T05:45:10.022Z,51.00
2019-05-19T05:47:38.941Z,54.70
2019-05-19T05:50:08.230Z,54.80
2019-05-19T05:55:07.664Z,51.00
2019-05-19T05:57:45.419Z,50.00
2019-05-19T06:00:16.122Z,53.40
2019-05-19T06:02:45.116Z,50.60
2019-05-19T06:05:14.068Z,54.60
2019-05-19T06:07:42.947Z,54.10
2019-05-19T06:10:12.394Z,54.50
2019-05-19T06:12:41.252Z,54.10
2019-05-19T06:15:10.333Z,53.40
2019-05-19T06:17:39.078Z,52.60
2019-05-19T06:20:08.218Z,52.30
2019-05-19T06:22:37.477Z,53.60
2019-05-19T06:25:06.425Z,53.60
2019-05-19T06:27:35.452Z,53.60
2019-05-19T06:30:08.664Z,52.90
2019-05-19T06:32:46.791Z,51.70
2019-05-19T06:35:15.842Z,52.60
2019-05-19T06:37:44.807Z,51.10
2019-05-19T06:40:13.784Z,51.20
2019-05-19T06:42:42.673Z,49.90
2019-05-19T06:45:11.936Z,49.00
2019-05-19T06:47:40.903Z,48.20
2019-05-19T06:50:11.127Z,49.30
2019-05-19T06:52:40.463Z,50.10
2019-05-19T06:55:09.576Z,48.40
2019-05-19T06:57:38.426Z,48.30
2019-05-19T07:00:09.251Z,46.50
2019-05-19T07:02:39.110Z,48.70
2019-05-19T07:05:08.270Z,45.60
2019-05-19T07:07:38.810Z,45.10
2019-05-19T07:10:08.187Z,47.00
2019-05-19T07:12:38.201Z,46.90
2019-05-19T07:15:08.390Z,45.90
2019-05-19T07:17:37.409Z,44.20
2019-05-19T07:20:06.433Z,45.90
2019-05-19T07:22:37.607Z,43.20
2019-05-19T07:25:11.862Z,44.80
2019-05-19T07:27:40.708Z,44.30
2019-05-19T07:30:11.108Z,44.60
2019-05-19T07:32:41.307Z,43.60
2019-05-19T07:35:12.430Z,41.40
2019-05-19T07:37:41.254Z,43.00
2019-05-19T07:40:10.277Z,44.20
2019-05-19T07:42:39.240Z,44.10
2019-05-19T07:45:10.407Z,43.90
2019-05-19T07:47:41.883Z,41.10
2019-05-19T07:50:13.060Z,42.10
2019-05-19T07:52:41.991Z,42.10
2019-05-19T07:55:10.798Z,42.10
2019-05-19T07:57:46.713Z,40.40
2019-05-19T08:00:15.640Z,39.50
2019-05-19T08:02:47.824Z,39.70
2019-05-19T08:05:17.961Z,39.50
2019-05-19T08:07:47.040Z,39.90
2019-05-19T08:10:16.064Z,39.50
2019-05-19T08:12:44.990Z,37.50
2019-05-19T08:15:14.501Z,38.50
2019-05-19T08:17:43.411Z,37.20
2019-05-19T08:20:12.507Z,38.10
2019-05-19T08:22:41.308Z,37.10
2019-05-19T08:25:10.531Z,37.10
2019-05-19T08:27:39.284Z,37.60
2019-05-19T08:30:09.044Z,35.70
2019-05-19T08:32:37.810Z,36.80
2019-05-19T08:35:07.343Z,36.50
2019-05-19T08:37:36.165Z,35.60
2019-05-19T08:40:06.089Z,34.60
2019-05-19T08:42:34.873Z,35.30
2019-05-19T08:45:05.515Z,34.50
2019-05-19T08:47:34.515Z,33.20
2019-05-19T08:50:04.161Z,30.70
2019-05-19T08:52:32.922Z,29.20
2019-05-19T08:55:01.781Z,26.60
2019-05-19T08:57:33.467Z,25.40
2019-05-19T09:00:02.253Z,24.40
2019-05-19T09:02:31.066Z,23.90
2019-05-19T09:05:01.426Z,24.70
2019-05-19T09:07:30.247Z,24.20
2019-05-19T09:09:59.103Z,23.30
2019-05-19T09:12:27.913Z,24.00
2019-05-19T09:14:56.761Z,23.30
2019-05-19T09:17:25.620Z,23.70
2019-05-19T09:19:54.463Z,22.30
2019-05-19T09:22:23.284Z,21.50
2019-05-19T09:24:52.133Z,22.30
2019-05-19T09:27:21.010Z,21.60
2019-05-19T09:29:49.837Z,21.50
2019-05-19T09:32:18.588Z,20.70
2019-05-19T09:34:47.359Z,20.80
2019-05-19T09:37:16.112Z,20.70
2019-05-19T09:39:44.889Z,20.20
2019-05-19T09:42:13.722Z,19.40
2019-05-19T09:44:42.560Z,18.30
2019-05-19T09:47:11.424Z,19.40
2019-05-19T09:49:40.274Z,19.20
2019-05-19T09:52:09.185Z,19.40
2019-05-19T09:54:45.378Z,18.90
2019-05-19T09:57:08.482Z,19.00
2019-05-19T09:59:37.214Z,19.10
2019-05-19T10:02:06.086Z,18.90
2019-05-19T10:04:34.904Z,19.60
2019-05-19T10:07:05.084Z,19.30
2019-05-19T10:09:55.861Z,18.50
2019-05-19T10:12:24.714Z,18.00
2019-05-19T10:14:53.771Z,17.40
2019-05-19T10:17:22.707Z,17.40
2019-05-19T10:19:51.595Z,17.20
2019-05-19T10:22:21.267Z,17.40
2019-05-19T10:25:10.389Z,17.70
2019-05-19T10:27:21.714Z,17.00
2019-05-19T10:29:50.805Z,18.20
2019-05-19T10:32:19.634Z,17.70
2019-05-19T10:34:48.471Z,17.90
2019-05-19T10:37:19.689Z,17.20
2019-05-19T10:39:48.472Z,16.60
2019-05-19T10:42:17.301Z,16.70
2019-05-19T10:44:46.149Z,17.60
2019-05-19T10:47:15.038Z,18.10
2019-05-19T10:49:43.828Z,16.10
2019-05-19T10:52:12.697Z,16.20
2019-05-19T10:54:41.463Z,15.80
2019-05-19T10:57:10.282Z,16.10
2019-05-19T10:59:39.215Z,16.60
2019-05-19T11:02:08.083Z,16.40
2019-05-19T11:04:36.947Z,16.60
2019-05-19T11:07:05.763Z,16.90
2019-05-19T11:09:34.602Z,16.30
2019-05-19T11:12:03.456Z,16.10
2019-05-19T11:14:32.298Z,15.70
2019-05-19T11:17:01.123Z,15.60
2019-05-19T11:19:29.974Z,15.30
2019-05-19T11:21:58.828Z,15.10
2019-05-19T11:24:27.719Z,14.90
2019-05-19T11:26:56.508Z,14.80
2019-05-19T11:29:25.265Z,15.30
2019-05-19T11:31:54.097Z,15.00
2019-05-19T11:34:22.913Z,15.60
2019-05-19T11:36:51.799Z,15.40
2019-05-19T11:39:21.991Z,15.40
2019-05-19T11:41:50.840Z,14.70
2019-05-19T11:44:19.664Z,15.60
2019-05-19T11:46:48.441Z,15.70
2019-05-19T11:49:17.279Z,15.90
2019-05-19T11:51:46.047Z,15.70
2019-05-19T11:54:14.936Z,15.10
2019-05-19T11:56:43.873Z,14.60
2019-05-19T11:59:12.800Z,15.30
2019-05-19T12:01:41.680Z,15.10
2019-05-19T12:04:10.536Z,15.60
2019-05-19T12:06:40.179Z,14.70
2019-05-19T12:09:09.127Z,14.40
2019-05-19T12:11:37.981Z,14.80
2019-05-19T12:14:06.801Z,15.80
2019-05-19T12:16:35.551Z,14.90
2019-05-19T12:19:04.392Z,15.20
2019-05-19T12:21:33.236Z,15.40
2019-05-19T12:24:01.990Z,14.40
2019-05-19T12:26:30.767Z,14.90
2019-05-19T12:28:59.585Z,15.30
2019-05-19T12:31:28.343Z,15.10
2019-05-19T12:33:57.132Z,15.70
2019-05-19T12:36:25.935Z,15.20
2019-05-19T12:38:54.753Z,15.40
2019-05-19T12:41:23.590Z,15.10
2019-05-19T12:43:52.417Z,14.60
2019-05-19T12:46:21.254Z,14.40
2019-05-19T12:48:50.083Z,15.20
2019-05-19T12:51:19.972Z,15.20
2019-05-19T12:53:48.827Z,14.70
2019-05-19T12:56:17.661Z,14.60
2019-05-19T12:58:46.508Z,15.50
2019-05-19T13:01:15.324Z,14.80
2019-05-19T13:03:44.156Z,15.00
2019-05-19T13:06:12.998Z,14.90
2019-05-19T13:08:47.623Z,14.80
2019-05-19T13:11:16.489Z,14.00
2019-05-19T13:13:45.356Z,15.00
2019-05-19T13:16:14.166Z,15.00
2019-05-19T13:18:42.976Z,15.00
2019-05-19T13:21:11.776Z,15.10
2019-05-19T13:23:40.632Z,15.20
2019-05-19T13:26:09.494Z,15.60
2019-05-19T13:28:38.334Z,15.10
2019-05-19T13:31:09.539Z,15.50
2019-05-19T13:33:38.097Z,14.90
2019-05-19T13:36:06.967Z,15.40
2019-05-19T13:38:35.813Z,15.40
2019-05-19T13:41:04.772Z,16.20
2019-05-19T13:43:33.666Z,16.10
2019-05-19T13:46:02.649Z,15.90
2019-05-19T13:48:31.428Z,16.00
2019-05-19T13:51:00.166Z,16.50
2019-05-19T13:53:28.996Z,17.00
2019-05-19T13:55:57.861Z,17.40
2019-05-19T13:58:26.901Z,17.80
2019-05-19T14:00:55.741Z,17.50
2019-05-19T14:03:24.585Z,17.00
2019-05-19T14:05:53.452Z,17.10
2019-05-19T14:08:22.341Z,17.00
2019-05-19T14:10:51.175Z,17.10
2019-05-19T14:13:20.110Z,17.90
2019-05-19T14:15:48.974Z,18.70
2019-05-19T14:18:17.964Z,19.10
2019-05-19T14:20:46.798Z,19.70
2019-05-19T14:23:15.679Z,20.10
2019-05-19T14:25:44.510Z,19.30
2019-05-19T14:28:13.383Z,20.50
2019-05-19T14:30:42.199Z,21.00
2019-05-19T14:33:11.109Z,20.40
2019-05-19T14:35:39.910Z,20.40
2019-05-19T14:38:08.742Z,21.10
2019-05-19T14:40:37.504Z,21.90
2019-05-19T14:43:06.343Z,21.50
2019-05-19T14:45:35.139Z,21.70
2019-05-19T14:48:04.008Z,20.90
2019-05-19T14:50:32.847Z,21.30
2019-05-19T14:53:01.727Z,20.90
2019-05-19T14:55:30.527Z,21.00
2019-05-19T14:57:59.391Z,19.70
2019-05-19T15:00:28.247Z,19.10
2019-05-19T15:02:57.079Z,18.90
2019-05-19T15:05:25.893Z,17.90
2019-05-19T15:07:54.722Z,17.50
2019-05-19T15:10:23.732Z,17.20
2019-05-19T15:12:52.557Z,17.30
2019-05-19T15:15:21.410Z,18.70
2019-05-19T15:17:50.289Z,18.50
2019-05-19T15:20:19.833Z,18.60
2019-05-19T15:22:48.668Z,17.90
2019-05-19T15:25:17.558Z,17.90
2019-05-19T15:27:59.360Z,17.60
2019-05-19T15:30:17.575Z,17.70
2019-05-19T15:32:46.358Z,18.00
2019-05-19T15:35:15.280Z,18.70
2019-05-19T15:37:44.102Z,19.00
2019-05-19T15:40:13.318Z,19.90
2019-05-19T15:42:42.170Z,20.00
2019-05-19T15:45:12.597Z,19.70
2019-05-19T15:47:41.521Z,20.80
2019-05-19T15:50:12.065Z,20.10
2019-05-19T15:52:40.921Z,20.60
2019-05-19T15:55:09.769Z,20.80
2019-05-19T15:57:38.733Z,20.90
2019-05-19T16:00:11.339Z,20.90
2019-05-19T16:02:40.298Z,21.60
2019-05-19T16:05:10.101Z,21.20
2019-05-19T16:07:38.940Z,21.80
2019-05-19T16:10:09.757Z,22.80
2019-05-19T16:12:38.876Z,22.50
2019-05-19T16:15:08.887Z,22.90
2019-05-19T16:17:37.726Z,22.80
2019-05-19T16:20:07.442Z,22.90
2019-05-19T16:22:36.322Z,23.90
2019-05-19T16:25:08.021Z,23.60
2019-05-19T16:27:36.945Z,22.80
2019-05-19T16:30:07.020Z,23.60
2019-05-19T16:32:35.952Z,23.50
2019-05-19T16:35:06.294Z,23.80
2019-05-19T16:37:35.172Z,23.90
2019-05-19T16:40:04.320Z,24.10
2019-05-19T16:42:33.147Z,23.50
2019-05-19T16:45:02.030Z,23.40
2019-05-19T16:47:31.558Z,23.10
2019-05-19T16:50:00.427Z,23.30
2019-05-19T16:52:29.387Z,23.60
2019-05-19T16:55:16.121Z,24.10
2019-05-19T16:57:44.949Z,24.70
2019-05-19T17:00:14.213Z,24.80
2019-05-19T17:02:43.103Z,25.40
2019-05-19T17:05:12.402Z,25.90
2019-05-19T17:07:41.325Z,26.10
2019-05-19T17:10:10.845Z,26.20
2019-05-19T17:12:39.881Z,26.60
2019-05-19T17:15:08.797Z,26.80
2019-05-19T17:17:37.625Z,27.30
2019-05-19T17:20:09.806Z,27.50
2019-05-19T17:22:38.734Z,27.50
2019-05-19T17:25:08.611Z,27.60
2019-05-19T17:27:37.485Z,27.30
2019-05-19T17:30:08.361Z,28.00
2019-05-19T17:32:37.207Z,28.00
2019-05-19T17:35:09.903Z,28.20
2019-05-19T17:37:38.915Z,28.10
2019-05-19T17:40:08.356Z,28.60
2019-05-19T17:42:37.454Z,28.60
2019-05-19T17:45:07.433Z,28.60
2019-05-19T17:47:36.571Z,29.20
2019-05-19T17:50:14.310Z,29.40
2019-05-19T17:52:43.297Z,30.00
2019-05-19T17:55:12.275Z,30.30
2019-05-19T17:57:41.439Z,30.30
2019-05-19T18:00:10.626Z,30.00
2019-05-19T18:02:39.843Z,31.00
2019-05-19T18:05:08.927Z,31.40
2019-05-19T18:07:38.447Z,32.00
2019-05-19T18:10:08.011Z,32.20
2019-05-19T18:12:36.827Z,32.20
2019-05-19T18:15:07.243Z,32.30
2019-05-19T18:17:36.088Z,32.00
2019-05-19T18:20:06.566Z,33.30
2019-05-19T18:22:35.326Z,32.20
2019-05-19T18:25:05.525Z,32.60
2019-05-19T18:27:34.456Z,32.30
2019-05-19T18:30:03.301Z,33.20
2019-05-19T18:32:33.632Z,32.10
2019-05-19T18:35:02.393Z,32.10
2019-05-19T18:37:31.259Z,32.70
2019-05-19T18:40:02.386Z,32.90
2019-05-19T18:42:35.787Z,33.10
2019-05-19T18:45:05.882Z,33.50
2019-05-19T18:47:34.629Z,34.10
2019-05-19T18:50:04.207Z,34.80
2019-05-19T18:52:33.127Z,34.70
2019-05-19T18:55:04.174Z,36.10
2019-05-19T18:57:33.029Z,35.50
2019-05-19T19:00:03.608Z,37.10
2019-05-19T19:02:32.477Z,37.00
2019-05-19T19:05:01.340Z,38.00
2019-05-19T19:07:49.608Z,38.10
2019-05-19T19:10:18.389Z,38.90
2019-05-19T19:12:47.819Z,39.10
2019-05-19T19:15:21.341Z,39.00
2019-05-19T19:17:50.150Z,39.70
2019-05-19T19:20:19.027Z,40.20
2019-05-19T19:22:47.953Z,40.80
2019-05-19T19:25:16.809Z,41.30
2019-05-19T19:27:45.666Z,40.80
2019-05-19T19:30:14.805Z,41.80
2019-05-19T19:32:43.820Z,42.10
2019-05-19T19:35:13.785Z,42.40
2019-05-19T19:37:42.622Z,41.00
2019-05-19T19:40:11.895Z,42.50
2019-05-19T19:42:40.718Z,42.60
2019-05-19T19:45:09.656Z,42.70
2019-05-19T19:47:38.539Z,42.20
2019-05-19T19:50:08.922Z,42.70
2019-05-19T19:52:37.739Z,40.50
2019-05-19T19:55:06.613Z,41.90
2019-05-19T19:57:35.461Z,42.30
2019-05-19T20:00:17.323Z,41.70
2019-05-19T20:02:35.675Z,40.20
2019-05-19T20:05:07.130Z,41.70
2019-05-19T20:07:35.950Z,40.50
2019-05-19T20:10:08.205Z,41.80
2019-05-19T20:12:37.117Z,41.40
2019-05-19T20:15:06.548Z,42.00
2019-05-19T20:17:35.511Z,43.00
2019-05-19T20:20:05.436Z,42.90
2019-05-19T20:22:34.212Z,44.40
2019-05-19T20:25:03.065Z,44.20
2019-05-19T20:27:31.861Z,43.60
2019-05-19T20:30:00.720Z,44.40
2019-05-19T20:32:29.494Z,44.50
2019-05-19T20:34:58.336Z,45.10
2019-05-19T20:37:27.160Z,45.40
2019-05-19T20:39:56.034Z,45.10
2019-05-19T20:42:26.397Z,44.80
2019-05-19T20:44:55.218Z,45.10
2019-05-19T20:47:24.067Z,45.60
2019-05-19T20:49:54.134Z,47.60
2019-05-19T20:52:22.963Z,47.10
2019-05-19T20:54:53.299Z,47.70
2019-05-19T20:57:22.147Z,46.30
2019-05-19T20:59:51.081Z,47.90
2019-05-19T21:02:19.859Z,46.00
2019-05-19T21:04:48.691Z,47.20
2019-05-19T21:07:17.522Z,48.50
2019-05-19T21:09:48.283Z,46.70
2019-05-19T21:12:16.764Z,47.90
2019-05-19T21:14:45.553Z,49.40
2019-05-19T21:17:15.876Z,49.20
2019-05-19T21:19:44.637Z,48.30
2019-05-19T21:22:13.465Z,48.90
2019-05-19T21:24:42.397Z,49.10
2019-05-19T21:27:11.222Z,49.50
2019-05-19T21:29:39.973Z,49.00
2019-05-19T21:32:08.749Z,48.80
2019-05-19T21:34:37.556Z,49.30
2019-05-19T21:37:06.370Z,49.90
2019-05-19T21:39:35.159Z,50.20
2019-05-19T21:42:03.983Z,50.10
2019-05-19T21:44:32.908Z,50.10
2019-05-19T21:47:01.779Z,50.50
2019-05-19T21:49:30.641Z,49.40
2019-05-19T21:51:59.474Z,50.60
2019-05-19T21:54:28.306Z,50.40
2019-05-19T21:56:58.272Z,49.80
2019-05-19T21:59:27.051Z,51.50
2019-05-19T22:01:56.017Z,50.50
2019-05-19T22:04:24.919Z,50.50
2019-05-19T22:07:13.562Z,51.70
2019-05-19T22:09:42.448Z,51.30
2019-05-19T22:12:11.274Z,51.70
2019-05-19T22:14:40.031Z,52.30
2019-05-19T22:17:08.872Z,52.40
2019-05-19T22:19:37.639Z,51.30
2019-05-19T22:22:06.416Z,51.50
2019-05-19T22:24:35.264Z,52.20
2019-05-19T22:27:04.095Z,51.40
2019-05-19T22:29:32.936Z,52.70
2019-05-19T22:32:01.697Z,51.70
2019-05-19T22:34:30.512Z,52.40
2019-05-19T22:36:59.378Z,52.60
2019-05-19T22:39:28.227Z,52.90
2019-05-19T22:41:56.997Z,53.30
2019-05-19T22:44:25.846Z,52.60
2019-05-19T22:46:54.662Z,53.70
2019-05-19T22:49:23.437Z,53.50
2019-05-19T22:51:52.222Z,54.00
2019-05-19T22:54:23.734Z,53.90
2019-05-19T22:56:52.494Z,53.40
2019-05-19T22:59:21.326Z,53.60
2019-05-19T23:01:52.086Z,54.30
2019-05-19T23:04:20.657Z,54.40
2019-05-19T23:06:49.497Z,53.60
2019-05-19T23:09:18.336Z,54.10
2019-05-19T23:11:47.184Z,54.00
2019-05-19T23:14:16.047Z,53.90
2019-05-19T23:16:44.874Z,54.30
2019-05-19T23:19:13.706Z,54.10
2019-05-19T23:21:42.495Z,54.70
2019-05-19T23:24:11.354Z,54.30
2019-05-19T23:26:40.164Z,54.20
2019-05-19T23:29:09.016Z,54.60
2019-05-19T23:31:37.792Z,54.40
2019-05-19T23:34:06.608Z,54.60
2019-05-19T23:36:35.392Z,54.90
2019-05-19T23:39:05.753Z,54.90
2019-05-19T23:41:34.612Z,55.00
2019-05-19T23:44:03.485Z,54.60
2019-05-19T23:46:32.334Z,54.80
2019-05-19T23:49:01.381Z,54.50
2019-05-19T23:51:30.245Z,53.60
2019-05-19T23:53:59.054Z,54.70
2019-05-19T23:56:27.922Z,55.30
2019-05-19T23:58:56.769Z,54.60
